Time;durP1;ratioP1;P1;durP2;ratioP2;P2;SDS_P1;SDS_P2;PMS_P1;PMS_P2;Temp;Humidity;BMP_temperature;BMP_pressure;BME280_temperature;BME280_humidity;BME280_pressure;Samples;Min_cycle;Max_cycle;Signal;HPM_P1;HPM_P2
2021/12/13 00:03:18;;;;;;;8.73;6.07;;;;;;;;;;10241511;28;20099;-54
2021/12/13 00:08:18;;;;;;;7.00;6.30;;;;;;;;;;10242077;28;20060;-54
2021/12/13 00:13:18;;;;;;;6.13;5.53;;;;;;;;;;10241627;28;20505;-55
2021/12/13 00:18:24;;;;;;;6.45;5.85;;;;;;;;;;10241200;28;20171;-58
2021/12/13 00:23:25;;;;;;;7.68;5.68;;;;;;;;;;10240290;28;20069;-54
2021/12/13 00:28:25;;;;;;;6.47;5.40;;;;;;;;;;10240487;28;20073;-53
2021/12/13 00:33:32;;;;;;;6.55;5.95;;;;;;;;;;10241734;28;20077;-56
2021/12/13 00:38:31;;;;;;;6.55;5.47;;;;;;;;;;10242939;28;20076;-56
2021/12/13 00:43:34;;;;;;;6.07;5.57;;;;;;;;;;10243565;28;20069;-54
2021/12/13 00:48:36;;;;;;;4.85;4.35;;;;;;;;;;10240491;28;20091;-55
2021/12/13 00:53:36;;;;;;;4.80;4.30;;;;;;;;;;10241361;28;20073;-55
2021/12/13 00:58:34;;;;;;;5.90;5.07;;;;;;;;;;10240496;28;20600;-54
2021/12/13 01:03:36;;;;;;;7.07;5.97;;;;;;;;;;10235165;28;20061;-56
2021/12/13 01:08:52;;;;;;;5.03;4.53;;;;;;;;;;10242618;28;20442;-56
2021/12/13 01:14:01;;;;;;;5.70;5.10;;;;;;;;;;10231449;28;20100;-55
2021/12/13 01:19:24;;;;;;;6.75;5.32;;;;;;;;;;10242653;28;20152;-54
2021/12/13 01:24:41;;;;;;;5.95;5.35;;;;;;;;;;10237988;28;20129;-55
2021/12/13 01:29:39;;;;;;;8.32;7.13;;;;;;;;;;10241375;28;20073;-53
2021/12/13 01:34:39;;;;;;;6.07;5.47;;;;;;;;;;10239512;28;20136;-54
2021/12/13 01:39:39;;;;;;;6.72;6.13;;;;;;;;;;10241147;28;20073;-55
2021/12/13 01:44:41;;;;;;;6.20;5.60;;;;;;;;;;10240357;28;20462;-54
2021/12/13 01:49:43;;;;;;;6.53;5.90;;;;;;;;;;10237634;28;20129;-52
2021/12/13 01:54:41;;;;;;;7.10;5.68;;;;;;;;;;10240911;28;20085;-51
2021/12/13 01:59:48;;;;;;;6.70;6.07;;;;;;;;;;10238602;28;20085;-53
2021/12/13 02:04:57;;;;;;;7.60;6.15;;;;;;;;;;10234177;28;20110;-52
2021/12/13 02:09:56;;;;;;;7.88;6.72;;;;;;;;;;10238789;28;20088;-54
2021/12/13 02:20:12;;;;;;;6.60;5.97;;;;;;;;;;10237466;28;20069;-55
2021/12/13 02:25:20;;;;;;;6.18;5.55;;;;;;;;;;10240848;28;20115;-53
2021/12/13 02:30:21;;;;;;;6.25;5.65;;;;;;;;;;10234493;28;20084;-53
2021/12/13 02:35:21;;;;;;;6.45;5.25;;;;;;;;;;10233971;28;20061;-54
2021/12/13 02:40:22;;;;;;;6.13;5.55;;;;;;;;;;10234955;28;20089;-56
2021/12/13 02:45:25;;;;;;;6.30;5.70;;;;;;;;;;10233438;28;20049;-56
2021/12/13 02:50:28;;;;;;;6.53;5.53;;;;;;;;;;10233698;28;20474;-51
2021/12/13 02:55:29;;;;;;;7.10;6.40;;;;;;;;;;10233971;28;20123;-52
2021/12/13 03:00:31;;;;;;;7.28;5.88;;;;;;;;;;10235040;28;20443;-50
2021/12/13 03:05:31;;;;;;;6.60;6.00;;;;;;;;;;10237915;28;20430;-54
2021/12/13 03:10:34;;;;;;;6.28;5.50;;;;;;;;;;10232889;28;20400;-52
2021/12/13 03:15:33;;;;;;;7.22;6.55;;;;;;;;;;10234382;28;20517;-56
2021/12/13 03:20:56;;;;;;;9.88;8.55;;;;;;;;;;10232254;28;20076;-56
2021/12/13 03:26:15;;;;;;;10.45;9.07;;;;;;;;;;10235356;28;20080;-55
2021/12/13 03:31:14;;;;;;;11.90;9.05;;;;;;;;;;10238112;28;20157;-53
2021/12/13 03:36:15;;;;;;;13.02;9.45;;;;;;;;;;10236187;28;20076;-54
2021/12/13 03:41:17;;;;;;;12.27;9.27;;;;;;;;;;10232097;28;20133;-54
2021/12/13 03:46:16;;;;;;;11.30;10.05;;;;;;;;;;10232927;28;20061;-54
2021/12/13 03:51:16;;;;;;;10.70;8.43;;;;;;;;;;10234054;28;20144;-54
2021/12/13 03:56:18;;;;;;;9.15;6.85;;;;;;;;;;10232924;28;20077;-54
2021/12/13 04:01:18;;;;;;;9.55;7.18;;;;;;;;;;10234651;28;20482;-56
2021/12/13 04:06:18;;;;;;;14.30;10.23;;;;;;;;;;10234649;28;20092;-55
2021/12/13 04:11:18;;;;;;;9.80;7.25;;;;;;;;;;10233669;28;20093;-55
2021/12/13 04:16:29;;;;;;;7.68;6.40;;;;;;;;;;10234024;28;20073;-55
2021/12/13 04:21:33;;;;;;;6.55;5.28;;;;;;;;;;10239934;28;20076;-53
2021/12/13 04:26:37;;;;;;;6.38;5.68;;;;;;;;;;10236688;28;20088;-55
2021/12/13 04:31:37;;;;;;;5.97;5.28;;;;;;;;;;10235813;28;20084;-55
2021/12/13 04:36:36;;;;;;;10.38;7.55;;;;;;;;;;10237438;28;20068;-51
2021/12/13 04:41:38;;;;;;;7.80;6.95;;;;;;;;;;10245782;28;20069;-58
2021/12/13 04:46:37;;;;;;;8.05;7.25;;;;;;;;;;10253694;28;20116;-56
2021/12/13 04:51:39;;;;;;;10.93;8.63;;;;;;;;;;10241560;28;20104;-54
2021/12/13 04:56:39;;;;;;;13.85;10.40;;;;;;;;;;10243637;28;20132;-54
2021/12/13 05:01:38;;;;;;;10.02;8.18;;;;;;;;;;10240473;28;20084;-53
2021/12/13 05:06:38;;;;;;;11.13;9.20;;;;;;;;;;10244684;28;20060;-56
2021/12/13 05:11:38;;;;;;;27.65;16.08;;;;;;;;;;10242027;28;20069;-55
2021/12/13 05:16:43;;;;;;;48.50;26.60;;;;;;;;;;10241077;28;20505;-56
2021/12/13 05:21:41;;;;;;;;;;;;;;;;;;10240182;28;20115;-54
2021/12/13 05:26:44;;;;;;;12.63;10.40;;;;;;;;;;10241710;28;20314;-54
2021/12/13 05:31:49;;;;;;;20.23;14.13;;;;;;;;;;10247565;28;20072;-56
2021/12/13 05:36:54;;;;;;;13.98;10.98;;;;;;;;;;10251159;28;20109;-55
2021/12/13 05:41:54;;;;;;;13.18;10.75;;;;;;;;;;10250295;28;20076;-54
2021/12/13 05:46:54;;;;;;;10.00;8.27;;;;;;;;;;10246379;28;20120;-54
2021/12/13 05:51:54;;;;;;;15.77;12.48;;;;;;;;;;10238303;28;20061;-54
2021/12/13 05:56:54;;;;;;;25.05;16.95;;;;;;;;;;10239592;28;20100;-55
2021/12/13 06:02:11;;;;;;;14.60;11.18;;;;;;;;;;10242786;28;20073;-53
2021/12/13 06:07:17;;;;;;;13.32;11.55;;;;;;;;;;10242157;28;20080;-54
2021/12/13 06:12:17;;;;;;;9.23;7.75;;;;;;;;;;10236311;28;20430;-54
2021/12/13 06:17:17;;;;;;;27.63;16.77;;;;;;;;;;10238082;28;20053;-53
2021/12/13 06:22:20;;;;;;;15.23;10.07;;;;;;;;;;10228522;28;20073;-53
2021/12/13 06:27:25;;;;;;;10.55;7.53;;;;;;;;;;10236959;28;20486;-52
2021/12/13 06:32:27;;;;;;;17.08;12.27;;;;;;;;;;10237994;28;20073;-55
2021/12/13 06:37:30;;;;;;;19.33;14.75;;;;;;;;;;10234277;28;20455;-58
2021/12/13 06:42:28;;;;;;;23.27;16.10;;;;;;;;;;10231697;28;20076;-55
2021/12/13 06:47:27;;;;;;;17.05;14.45;;;;;;;;;;10240316;28;20085;-52
2021/12/13 06:52:32;;;;;;;19.23;14.43;;;;;;;;;;10235753;28;20491;-52
2021/12/13 06:57:35;;;;;;;21.33;15.88;;;;;;;;;;10242690;28;20104;-50
2021/12/13 07:02:38;;;;;;;22.35;16.05;;;;;;;;;;10252976;28;20065;-52
2021/12/13 07:07:38;;;;;;;19.95;14.57;;;;;;;;;;10242556;28;20069;-54
2021/12/13 07:12:45;;;;;;;16.05;12.45;;;;;;;;;;10239955;28;20488;-52
2021/12/13 07:17:43;;;;;;;12.38;10.10;;;;;;;;;;10240316;28;20515;-55
2021/12/13 07:22:42;;;;;;;12.32;9.48;;;;;;;;;;10241309;28;20076;-53
2021/12/13 07:27:44;;;;;;;10.68;9.27;;;;;;;;;;10239985;28;20068;-48
2021/12/13 07:32:46;;;;;;;11.82;9.35;;;;;;;;;;10240285;28;20058;-56
2021/12/13 07:37:47;;;;;;;27.23;18.13;;;;;;;;;;10234682;28;20095;-56
2021/12/13 07:42:51;;;;;;;12.32;10.27;;;;;;;;;;10235040;28;20072;-54
2021/12/13 07:47:51;;;;;;;19.87;14.80;;;;;;;;;;10235017;28;20080;-55
2021/12/13 07:52:53;;;;;;;13.23;11.27;;;;;;;;;;10236225;28;20493;-51
2021/12/13 07:57:54;;;;;;;16.30;12.32;;;;;;;;;;10237962;28;20080;-53
2021/12/13 08:02:55;;;;;;;24.67;16.98;;;;;;;;;;10242135;28;20064;-56
2021/12/13 08:07:58;;;;;;;12.73;10.43;;;;;;;;;;10243250;28;20469;-53
2021/12/13 08:13:02;;;;;;;11.23;9.35;;;;;;;;;;10243686;28;20069;-57
2021/12/13 08:18:02;;;;;;;11.32;10.13;;;;;;;;;;10246250;28;20069;-55
2021/12/13 08:23:01;;;;;;;21.75;13.80;;;;;;;;;;10247756;28;20096;-53
2021/12/13 08:28:03;;;;;;;22.95;15.63;;;;;;;;;;10247483;28;20163;-53
2021/12/13 08:33:07;;;;;;;19.83;13.77;;;;;;;;;;10248123;28;20469;-55
2021/12/13 08:38:05;;;;;;;16.63;12.57;;;;;;;;;;10243901;28;20060;-55
2021/12/13 08:43:06;;;;;;;15.00;12.68;;;;;;;;;;10244360;28;20088;-56
2021/12/13 08:48:07;;;;;;;20.20;17.77;;;;;;;;;;10249747;28;20064;-54
2021/12/13 08:53:08;;;;;;;26.25;18.35;;;;;;;;;;10247581;28;20487;-55
2021/12/13 08:58:14;;;;;;;22.98;18.25;;;;;;;;;;10243210;28;20088;-54
2021/12/13 09:03:18;;;;;;;17.60;11.93;;;;;;;;;;10245603;28;20077;-56
2021/12/13 09:08:17;;;;;;;22.02;16.42;;;;;;;;;;10246667;28;20502;-55
2021/12/13 09:13:17;;;;;;;11.05;9.25;;;;;;;;;;10243054;28;20511;-53
2021/12/13 09:18:19;;;;;;;17.23;12.48;;;;;;;;;;10241818;28;20049;-55
2021/12/13 09:23:19;;;;;;;17.92;11.20;;;;;;;;;;10238778;28;20107;-55
2021/12/13 09:28:20;;;;;;;16.33;12.38;;;;;;;;;;10242343;28;20485;-55
2021/12/13 09:33:21;;;;;;;18.50;12.93;;;;;;;;;;10240863;28;20081;-54
2021/12/13 09:38:23;;;;;;;16.92;12.75;;;;;;;;;;10241140;28;20076;-53
2021/12/13 09:43:22;;;;;;;26.50;16.08;;;;;;;;;;10241215;28;20511;-55
2021/12/13 09:48:23;;;;;;;11.68;9.02;;;;;;;;;;10244127;28;20061;-55
2021/12/13 09:53:23;;;;;;;16.58;13.10;;;;;;;;;;10245838;28;20491;-55
2021/12/13 09:58:25;;;;;;;14.35;11.20;;;;;;;;;;10238819;28;20109;-55
2021/12/13 10:03:26;;;;;;;20.73;14.65;;;;;;;;;;10239063;28;20072;-54
2021/12/13 10:08:26;;;;;;;18.25;12.20;;;;;;;;;;10238408;28;20113;-54
2021/12/13 10:13:28;;;;;;;25.25;17.05;;;;;;;;;;10240052;28;20076;-53
2021/12/13 10:18:27;;;;;;;15.82;13.23;;;;;;;;;;10241512;28;20092;-53
2021/12/13 10:23:28;;;;;;;19.15;12.77;;;;;;;;;;10237741;28;20076;-56
2021/12/13 10:28:54;;;;;;;17.38;12.93;;;;;;;;;;10240794;28;20060;-54
2021/12/13 10:33:54;;;;;;;15.10;13.00;;;;;;;;;;10241263;28;20073;-55
2021/12/13 10:38:54;;;;;;;15.43;11.88;;;;;;;;;;10242010;28;20398;-55
2021/12/13 10:43:55;;;;;;;15.40;13.63;;;;;;;;;;10237285;28;20091;-56
2021/12/13 10:48:55;;;;;;;16.65;13.10;;;;;;;;;;10236814;28;20435;-54
2021/12/13 10:53:54;;;;;;;22.65;17.42;;;;;;;;;;10243076;28;20065;-56
2021/12/13 10:58:53;;;;;;;15.98;12.40;;;;;;;;;;10241240;28;20073;-54
2021/12/13 11:03:54;;;;;;;18.83;14.57;;;;;;;;;;10235324;28;20068;-54
2021/12/13 11:08:53;;;;;;;19.42;15.45;;;;;;;;;;10239885;28;20472;-57
2021/12/13 11:13:52;;;;;;;17.63;15.43;;;;;;;;;;10239400;28;20117;-55
2021/12/13 11:18:51;;;;;;;16.10;13.35;;;;;;;;;;10235288;28;20072;-56
2021/12/13 11:23:51;;;;;;;17.73;12.82;;;;;;;;;;10239979;28;20098;-55
2021/12/13 11:28:49;;;;;;;28.33;19.30;;;;;;;;;;10235073;28;20065;-55
2021/12/13 11:34:12;;;;;;;24.50;17.67;;;;;;;;;;10236792;28;20616;-54
2021/12/13 11:39:28;;;;;;;60.25;37.85;;;;;;;;;;10241018;28;20084;-55
2021/12/13 11:44:36;;;;;;;52.67;29.35;;;;;;;;;;10237371;28;20112;-52
2021/12/13 11:49:52;;;;;;;59.92;33.90;;;;;;;;;;10242585;28;20093;-53
2021/12/13 11:55:18;;;;;;;56.17;32.42;;;;;;;;;;10245990;28;20053;-55
2021/12/13 12:00:25;;;;;;;66.88;37.80;;;;;;;;;;10245965;28;20944;-54
2021/12/13 12:05:41;;;;;;;35.53;21.48;;;;;;;;;;10240997;28;20113;-53
2021/12/13 12:10:54;;;;;;;26.95;18.50;;;;;;;;;;10235772;28;20085;-53
2021/12/13 12:15:58;;;;;;;37.05;22.60;;;;;;;;;;10232399;28;20069;-54
2021/12/13 12:21:12;;;;;;;21.85;12.57;;;;;;;;;;10241793;28;20084;-53
2021/12/13 12:26:10;;;;;;;23.55;18.50;;;;;;;;;;10245283;28;20041;-56
2021/12/13 12:31:11;;;;;;;22.65;17.98;;;;;;;;;;10245867;28;20071;-55
2021/12/13 12:36:21;;;;;;;22.10;14.52;;;;;;;;;;10244980;28;20083;-51
2021/12/13 12:41:45;;;;;;;19.05;11.13;;;;;;;;;;10243791;28;20459;-56
2021/12/13 12:47:05;;;;;;;29.27;19.33;;;;;;;;;;10246068;28;20076;-54
2021/12/13 12:52:05;;;;;;;31.20;21.60;;;;;;;;;;10243915;28;20454;-55
2021/12/13 12:57:04;;;;;;;19.42;16.42;;;;;;;;;;10243230;28;20283;-54
2021/12/13 13:02:06;;;;;;;32.28;20.13;;;;;;;;;;10240900;28;20549;-54
2021/12/13 13:07:05;;;;;;;22.23;16.60;;;;;;;;;;10245395;28;20080;-55
2021/12/13 13:12:04;;;;;;;21.17;16.23;;;;;;;;;;10242557;28;20089;-53
2021/12/13 13:17:05;;;;;;;18.50;14.20;;;;;;;;;;10244921;28;20069;-55
2021/12/13 13:22:06;;;;;;;30.50;20.60;;;;;;;;;;10240814;28;20077;-54
2021/12/13 13:27:28;;;;;;;23.58;17.30;;;;;;;;;;10245165;28;20073;-55
2021/12/13 13:32:27;;;;;;;30.70;21.13;;;;;;;;;;10242610;28;20129;-54
2021/12/13 13:37:28;;;;;;;36.95;19.42;;;;;;;;;;10243995;28;20068;-54
2021/12/13 13:42:28;;;;;;;43.78;31.98;;;;;;;;;;10242914;28;20072;-53
2021/12/13 13:47:28;;;;;;;30.13;20.67;;;;;;;;;;10242764;28;20098;-55
2021/12/13 13:52:31;;;;;;;24.50;17.42;;;;;;;;;;10241814;28;20120;-53
2021/12/13 13:57:31;;;;;;;24.15;16.85;;;;;;;;;;10242090;28;20089;-55
2021/12/13 14:02:32;;;;;;;25.75;16.80;;;;;;;;;;10241230;28;20076;-53
2021/12/13 14:07:33;;;;;;;18.45;13.35;;;;;;;;;;10243324;28;20069;-54
2021/12/13 14:12:36;;;;;;;44.88;29.95;;;;;;;;;;10241824;28;20096;-57
2021/12/13 14:17:35;;;;;;;24.90;18.63;;;;;;;;;;10244780;28;20068;-55
2021/12/13 14:22:35;;;;;;;25.98;19.17;;;;;;;;;;10245829;28;20175;-54
2021/12/13 14:27:33;;;;;;;33.40;24.25;;;;;;;;;;10241072;28;20056;-54
2021/12/13 14:32:52;;;;;;;28.88;22.95;;;;;;;;;;10241788;28;20065;-53
2021/12/13 14:37:53;;;;;;;27.55;23.60;;;;;;;;;;10236511;28;20073;-54
2021/12/13 14:42:51;;;;;;;78.95;45.35;;;;;;;;;;10237416;28;20077;-54
2021/12/13 14:47:51;;;;;;;55.72;36.67;;;;;;;;;;10236975;28;20061;-54
2021/12/13 14:52:50;;;;;;;63.38;45.78;;;;;;;;;;10239230;28;20107;-55
2021/12/13 14:57:55;;;;;;;249.18;127.10;;;;;;;;;;10248038;28;20083;-56
2021/12/13 15:02:55;;;;;;;49.30;34.97;;;;;;;;;;10240036;28;20096;-53
2021/12/13 15:07:53;;;;;;;42.28;33.53;;;;;;;;;;10241954;28;20070;-53
2021/12/13 15:12:52;;;;;;;37.45;29.25;;;;;;;;;;10242263;28;20080;-54
2021/12/13 15:17:53;;;;;;;55.08;38.25;;;;;;;;;;10240979;28;20073;-54
2021/12/13 15:22:53;;;;;;;55.92;45.13;;;;;;;;;;10240042;28;20481;-52
2021/12/13 15:27:52;;;;;;;30.75;22.35;;;;;;;;;;10244925;28;20069;-54
2021/12/13 15:32:56;;;;;;;61.85;40.08;;;;;;;;;;10240563;28;20065;-53
2021/12/13 15:37:55;;;;;;;60.53;39.55;;;;;;;;;;10239572;28;20068;-56
2021/12/13 15:42:56;;;;;;;93.18;57.72;;;;;;;;;;10242339;28;20081;-54
2021/12/13 15:53:21;;;;;;;112.68;68.10;;;;;;;;;;10241003;28;20049;-56
2021/12/13 15:58:24;;;;;;;60.50;40.25;;;;;;;;;;10237627;28;20105;-51
2021/12/13 16:03:26;;;;;;;67.93;45.08;;;;;;;;;;10241824;28;20080;-56
2021/12/13 16:08:48;;;;;;;124.38;72.28;;;;;;;;;;10239903;28;20106;-54
2021/12/13 16:13:48;;;;;;;152.15;89.68;;;;;;;;;;10226356;28;20459;-52
2021/12/13 16:18:49;;;;;;;107.88;56.15;;;;;;;;;;10243397;28;20069;-53
2021/12/13 16:23:52;;;;;;;177.27;94.43;;;;;;;;;;10237660;28;20085;-55
2021/12/13 16:28:51;;;;;;;125.40;69.20;;;;;;;;;;10239986;28;20080;-53
2021/12/13 16:33:52;;;;;;;69.22;46.00;;;;;;;;;;10244490;28;20088;-51
2021/12/13 16:38:53;;;;;;;98.00;61.00;;;;;;;;;;10246911;28;20061;-52
2021/12/13 16:43:53;;;;;;;141.85;80.50;;;;;;;;;;10248673;28;20502;-56
2021/12/13 16:48:59;;;;;;;92.40;57.53;;;;;;;;;;10245874;28;20069;-51
2021/12/13 16:54:01;;;;;;;93.20;60.38;;;;;;;;;;10247187;28;20034;-56
2021/12/13 16:59:00;;;;;;;149.70;78.65;;;;;;;;;;10249964;28;20510;-55
2021/12/13 17:04:05;;;;;;;125.20;67.60;;;;;;;;;;10245134;28;20134;-54
2021/12/13 17:09:07;;;;;;;125.47;67.78;;;;;;;;;;10246313;28;20346;-52
2021/12/13 17:14:14;;;;;;;197.13;106.15;;;;;;;;;;10245547;28;20068;-56
2021/12/13 17:19:16;;;;;;;237.63;129.32;;;;;;;;;;10245835;28;20042;-53
2021/12/13 17:24:18;;;;;;;74.50;47.63;;;;;;;;;;10249192;28;20075;-54
2021/12/13 17:29:23;;;;;;;61.67;40.28;;;;;;;;;;10246246;28;20073;-56
2021/12/13 17:34:34;;;;;;;73.90;50.92;;;;;;;;;;10246023;28;20073;-55
2021/12/13 17:39:33;;;;;;;77.75;52.60;;;;;;;;;;10246693;28;20569;-55
2021/12/13 17:44:31;;;;;;;80.85;58.38;;;;;;;;;;10243887;28;20073;-53
2021/12/13 17:49:41;;;;;;;50.40;35.67;;;;;;;;;;10242422;28;20451;-53
2021/12/13 17:54:50;;;;;;;57.58;41.13;;;;;;;;;;10252258;28;20076;-53
2021/12/13 17:59:48;;;;;;;129.77;78.82;;;;;;;;;;10245490;28;20072;-54
2021/12/13 18:04:53;;;;;;;82.05;53.40;;;;;;;;;;10244443;28;20073;-54
2021/12/13 18:09:51;;;;;;;57.35;38.72;;;;;;;;;;10244923;28;20079;-55
2021/12/13 18:14:58;;;;;;;38.25;28.42;;;;;;;;;;10244223;28;20067;-53
2021/12/13 18:20:02;;;;;;;61.70;46.63;;;;;;;;;;10246025;28;20072;-50
2021/12/13 18:25:02;;;;;;;63.90;42.47;;;;;;;;;;10247914;28;20091;-53
2021/12/13 18:30:07;;;;;;;65.10;43.78;;;;;;;;;;10247499;28;20128;-54
2021/12/13 18:35:20;;;;;;;64.47;40.70;;;;;;;;;;10246541;28;20486;-53
2021/12/13 18:40:20;;;;;;;89.97;52.08;;;;;;;;;;10248881;28;20084;-54
2021/12/13 18:45:25;;;;;;;125.82;77.85;;;;;;;;;;10244303;28;20447;-53
2021/12/13 18:50:26;;;;;;;66.00;46.70;;;;;;;;;;10239720;28;20137;-52
2021/12/13 18:55:27;;;;;;;39.55;26.90;;;;;;;;;;10236961;28;20064;-52
2021/12/13 19:00:28;;;;;;;106.88;65.75;;;;;;;;;;10247467;28;20511;-50
2021/12/13 19:05:30;;;;;;;87.18;59.88;;;;;;;;;;10244739;28;20514;-54
2021/12/13 19:10:35;;;;;;;71.85;48.63;;;;;;;;;;10252335;28;20088;-50
2021/12/13 19:15:37;;;;;;;85.20;53.08;;;;;;;;;;10249627;28;20061;-50
2021/12/13 19:20:39;;;;;;;54.05;36.78;;;;;;;;;;10244823;28;20060;-52
2021/12/13 19:25:41;;;;;;;51.42;35.47;;;;;;;;;;10239749;28;20514;-53
2021/12/13 19:30:45;;;;;;;59.38;37.65;;;;;;;;;;10245068;28;20488;-50
2021/12/13 19:35:47;;;;;;;44.85;30.45;;;;;;;;;;10245659;28;20069;-51
2021/12/13 19:40:47;;;;;;;102.60;45.20;;;;;;;;;;10240246;28;20087;-53
2021/12/13 19:45:47;;;;;;;94.22;43.75;;;;;;;;;;10237736;28;20079;-54
2021/12/13 19:50:50;;;;;;;29.55;21.10;;;;;;;;;;10248375;28;20042;-50
2021/12/13 19:55:51;;;;;;;34.75;26.88;;;;;;;;;;10239490;28;20515;-54
2021/12/13 20:00:57;;;;;;;41.22;27.90;;;;;;;;;;10244668;28;20076;-52
2021/12/13 20:05:59;;;;;;;85.88;60.17;;;;;;;;;;10239957;28;20076;-50
2021/12/13 20:10:58;;;;;;;78.80;57.63;;;;;;;;;;10248304;28;20538;-53
2021/12/13 20:15:59;;;;;;;41.03;30.10;;;;;;;;;;10246951;28;20466;-49
2021/12/13 20:21:00;;;;;;;32.40;22.60;;;;;;;;;;10253013;28;20072;-52
2021/12/13 20:26:00;;;;;;;33.22;23.67;;;;;;;;;;10257983;28;20081;-51
2021/12/13 20:31:04;;;;;;;37.38;27.60;;;;;;;;;;10249387;28;20057;-51
2021/12/13 20:36:11;;;;;;;31.70;23.33;;;;;;;;;;10247540;28;20084;-55
2021/12/13 20:41:11;;;;;;;41.25;29.73;;;;;;;;;;10258158;28;20515;-53
2021/12/13 20:46:13;;;;;;;34.70;23.77;;;;;;;;;;10245471;28;20073;-55
2021/12/13 20:51:14;;;;;;;39.10;26.55;;;;;;;;;;10247131;28;20095;-49
2021/12/13 20:56:14;;;;;;;58.85;36.65;;;;;;;;;;10247352;28;20487;-56
2021/12/13 21:01:16;;;;;;;114.07;62.20;;;;;;;;;;10247292;28;20072;-53
2021/12/13 21:06:18;;;;;;;92.32;49.40;;;;;;;;;;10240877;28;20089;-55
2021/12/13 21:11:18;;;;;;;72.35;41.75;;;;;;;;;;10253266;28;20080;-52
2021/12/13 21:16:18;;;;;;;55.70;35.90;;;;;;;;;;10249971;28;20080;-48
2021/12/13 21:21:23;;;;;;;37.92;25.73;;;;;;;;;;10248489;28;20075;-53
2021/12/13 21:26:23;;;;;;;44.53;31.17;;;;;;;;;;10245000;28;20452;-51
2021/12/13 21:31:23;;;;;;;57.20;36.58;;;;;;;;;;10237505;28;20049;-54
2021/12/13 21:36:27;;;;;;;31.85;22.88;;;;;;;;;;10238331;28;20076;-54
2021/12/13 21:41:28;;;;;;;36.75;26.08;;;;;;;;;;10236082;28;20088;-53
2021/12/13 21:46:29;;;;;;;50.38;34.15;;;;;;;;;;10248741;28;20092;-54
2021/12/13 21:51:41;;;;;;;36.50;26.02;;;;;;;;;;10249559;28;20068;-54
2021/12/13 21:56:42;;;;;;;29.45;21.33;;;;;;;;;;10245260;28;20084;-54
2021/12/13 22:01:44;;;;;;;30.80;21.77;;;;;;;;;;10235536;28;20056;-56
2021/12/13 22:06:49;;;;;;;26.27;20.35;;;;;;;;;;10234830;28;20515;-54
2021/12/13 22:11:49;;;;;;;29.07;21.77;;;;;;;;;;10248793;28;20081;-55
2021/12/13 22:16:50;;;;;;;23.35;19.95;;;;;;;;;;10260007;28;20064;-53
2021/12/13 22:21:54;;;;;;;22.67;18.48;;;;;;;;;;10244665;28;20056;-53
2021/12/13 22:26:56;;;;;;;25.10;17.63;;;;;;;;;;10247644;28;20087;-53
2021/12/13 22:32:02;;;;;;;25.90;18.17;;;;;;;;;;10244312;28;20048;-52
2021/12/13 22:37:00;;;;;;;;;;;;;;;;;;10244616;28;20141;-54
2021/12/13 22:42:01;;;;;;;28.05;19.95;;;;;;;;;;10233799;28;20028;-52
2021/12/13 22:47:03;;;;;;;20.25;15.95;;;;;;;;;;10234017;28;20077;-54
2021/12/13 22:52:05;;;;;;;21.02;16.63;;;;;;;;;;10237485;28;20073;-53
2021/12/13 22:57:05;;;;;;;24.05;17.95;;;;;;;;;;10232797;28;20085;-53
2021/12/13 23:02:05;;;;;;;25.75;18.08;;;;;;;;;;10245048;28;20060;-51
2021/12/13 23:07:05;;;;;;;26.77;18.88;;;;;;;;;;10233397;28;20096;-54
2021/12/13 23:17:23;;;;;;;26.15;18.70;;;;;;;;;;10233401;28;20050;-54
2021/12/13 23:22:23;;;;;;;33.88;22.17;;;;;;;;;;10242418;28;20111;-51
2021/12/13 23:27:23;;;;;;;42.85;28.27;;;;;;;;;;10236398;28;20088;-54
2021/12/13 23:32:23;;;;;;;27.77;19.30;;;;;;;;;;10232927;28;20056;-52
2021/12/13 23:37:25;;;;;;;19.83;14.75;;;;;;;;;;10232122;28;20457;-56
2021/12/13 23:47:41;;;;;;;29.80;22.08;;;;;;;;;;10245886;28;20478;-52
2021/12/13 23:52:41;;;;;;;19.13;15.05;;;;;;;;;;10236486;28;20038;-54
2021/12/13 23:57:43;;;;;;;24.30;19.05;;;;;;;;;;10234557;28;20506;-50
